sensor_id;sensor_type;location;lat;lon;timestamp;temperature;humidity
14411;DHT22;7290;50.854;4.354;2023-02-19T00:01:30;11.40;99.90
14411;DHT22;7290;50.854;4.354;2023-02-19T00:03:57;11.40;99.90
14411;DHT22;7290;50.854;4.354;2023-02-19T00:06:25;11.40;99.90
14411;DHT22;7290;50.854;4.354;2023-02-19T00:08:52;11.50;99.90
14411;DHT22;7290;50.854;4.354;2023-02-19T00:11:20;11.50;99.90
14411;DHT22;7290;50.854;4.354;2023-02-19T00:13:48;11.50;99.90
14411;DHT22;7290;50.854;4.354;2023-02-19T00:16:16;11.30;99.90
14411;DHT22;7290;50.854;4.354;2023-02-19T00:18:43;11.30;99.90
14411;DHT22;7290;50.854;4.354;2023-02-19T00:21:09;11.40;99.90
14411;DHT22;7290;50.854;4.354;2023-02-19T00:23:35;11.30;99.90
14411;DHT22;7290;50.854;4.354;2023-02-19T00:26:02;11.30;99.90
14411;DHT22;7290;50.854;4.354;2023-02-19T00:28:29;11.40;99.90
14411;DHT22;7290;50.854;4.354;2023-02-19T00:30:55;11.40;99.90
14411;DHT22;7290;50.854;4.354;2023-02-19T00:33:21;11.40;99.90
14411;DHT22;7290;50.854;4.354;2023-02-19T00:35:48;11.50;99.90
14411;DHT22;7290;50.854;4.354;2023-02-19T00:38:14;11.50;99.90
14411;DHT22;7290;50.854;4.354;2023-02-19T00:40:40;11.60;99.90
14411;DHT22;7290;50.854;4.354;2023-02-19T00:43:06;11.50;99.90
14411;DHT22;7290;50.854;4.354;2023-02-19T00:45:32;11.40;99.90
14411;DHT22;7290;50.854;4.354;2023-02-19T00:48:00;11.50;99.90
14411;DHT22;7290;50.854;4.354;2023-02-19T00:50:26;11.50;99.90
14411;DHT22;7290;50.854;4.354;2023-02-19T00:52:52;11.60;99.90
14411;DHT22;7290;50.854;4.354;2023-02-19T00:55:18;11.60;99.90
14411;DHT22;7290;50.854;4.354;2023-02-19T00:57:44;11.60;99.90
14411;DHT22;7290;50.854;4.354;2023-02-19T01:00:11;11.60;99.90
14411;DHT22;7290;50.854;4.354;2023-02-19T01:02:38;11.50;99.90
14411;DHT22;7290;50.854;4.354;2023-02-19T01:05:04;11.50;99.90
14411;DHT22;7290;50.854;4.354;2023-02-19T01:07:30;11.60;99.90
14411;DHT22;7290;50.854;4.354;2023-02-19T01:09:56;11.60;99.90
14411;DHT22;7290;50.854;4.354;2023-02-19T01:12:22;11.60;99.90
14411;DHT22;7290;50.854;4.354;2023-02-19T01:14:50;11.60;99.90
14411;DHT22;7290;50.854;4.354;2023-02-19T01:17:16;11.70;99.90
14411;DHT22;7290;50.854;4.354;2023-02-19T01:19:42;11.70;99.90
14411;DHT22;7290;50.854;4.354;2023-02-19T01:22:08;11.70;99.90
14411;DHT22;7290;50.854;4.354;2023-02-19T01:24:34;11.60;99.90
14411;DHT22;7290;50.854;4.354;2023-02-19T01:27:00;11.70;99.90
14411;DHT22;7290;50.854;4.354;2023-02-19T01:29:26;11.70;99.90
14411;DHT22;7290;50.854;4.354;2023-02-19T01:31:52;11.60;99.90
14411;DHT22;7290;50.854;4.354;2023-02-19T01:34:18;11.40;99.90
14411;DHT22;7290;50.854;4.354;2023-02-19T01:36:45;11.40;99.90
14411;DHT22;7290;50.854;4.354;2023-02-19T01:39:11;11.40;99.90
14411;DHT22;7290;50.854;4.354;2023-02-19T01:41:39;11.30;99.90
14411;DHT22;7290;50.854;4.354;2023-02-19T01:44:06;11.40;99.90
14411;DHT22;7290;50.854;4.354;2023-02-19T01:46:33;11.40;99.90
14411;DHT22;7290;50.854;4.354;2023-02-19T01:49:03;11.40;99.90
14411;DHT22;7290;50.854;4.354;2023-02-19T01:51:32;11.30;99.90
14411;DHT22;7290;50.854;4.354;2023-02-19T01:54:01;11.30;99.90
14411;DHT22;7290;50.854;4.354;2023-02-19T01:56:29;11.30;99.90
14411;DHT22;7290;50.854;4.354;2023-02-19T01:58:56;11.30;99.90
14411;DHT22;7290;50.854;4.354;2023-02-19T02:01:23;11.30;99.90
14411;DHT22;7290;50.854;4.354;2023-02-19T02:03:50;11.30;99.90
14411;DHT22;7290;50.854;4.354;2023-02-19T02:06:20;11.30;99.90
14411;DHT22;7290;50.854;4.354;2023-02-19T02:08:49;11.30;99.90
14411;DHT22;7290;50.854;4.354;2023-02-19T02:11:35;11.40;99.90
14411;DHT22;7290;50.854;4.354;2023-02-19T02:14:02;11.30;99.90
14411;DHT22;7290;50.854;4.354;2023-02-19T02:16:33;11.30;99.90
14411;DHT22;7290;50.854;4.354;2023-02-19T02:19:12;11.30;99.90
14411;DHT22;7290;50.854;4.354;2023-02-19T02:21:52;11.30;99.90
14411;DHT22;7290;50.854;4.354;2023-02-19T02:25:06;11.30;99.90
14411;DHT22;7290;50.854;4.354;2023-02-19T02:27:47;11.30;99.90
14411;DHT22;7290;50.854;4.354;2023-02-19T02:30:24;11.30;99.90
14411;DHT22;7290;50.854;4.354;2023-02-19T02:32:57;11.30;99.90
14411;DHT22;7290;50.854;4.354;2023-02-19T02:35:30;11.30;99.90
14411;DHT22;7290;50.854;4.354;2023-02-19T02:38:01;11.30;99.90
14411;DHT22;7290;50.854;4.354;2023-02-19T02:40:29;11.30;99.90
14411;DHT22;7290;50.854;4.354;2023-02-19T02:42:56;11.30;99.90
14411;DHT22;7290;50.854;4.354;2023-02-19T02:45:27;11.30;99.90
14411;DHT22;7290;50.854;4.354;2023-02-19T02:48:00;11.30;99.90
14411;DHT22;7290;50.854;4.354;2023-02-19T02:50:31;11.30;99.90
14411;DHT22;7290;50.854;4.354;2023-02-19T02:53:02;11.30;99.90
14411;DHT22;7290;50.854;4.354;2023-02-19T02:55:50;11.40;99.90
14411;DHT22;7290;50.854;4.354;2023-02-19T02:58:20;11.40;99.90
14411;DHT22;7290;50.854;4.354;2023-02-19T03:00:51;11.30;99.90
14411;DHT22;7290;50.854;4.354;2023-02-19T03:03:38;11.30;99.90
14411;DHT22;7290;50.854;4.354;2023-02-19T03:06:08;11.30;99.90
14411;DHT22;7290;50.854;4.354;2023-02-19T03:08:38;11.40;99.90
14411;DHT22;7290;50.854;4.354;2023-02-19T03:11:07;11.30;99.90
14411;DHT22;7290;50.854;4.354;2023-02-19T03:13:51;11.30;99.90
14411;DHT22;7290;50.854;4.354;2023-02-19T03:16:38;11.30;99.90
14411;DHT22;7290;50.854;4.354;2023-02-19T03:19:26;11.30;99.90
14411;DHT22;7290;50.854;4.354;2023-02-19T03:21:55;11.30;99.90
14411;DHT22;7290;50.854;4.354;2023-02-19T03:24:24;11.30;99.90
14411;DHT22;7290;50.854;4.354;2023-02-19T03:27:12;11.20;99.90
14411;DHT22;7290;50.854;4.354;2023-02-19T03:29:40;11.10;99.90
14411;DHT22;7290;50.854;4.354;2023-02-19T03:32:11;11.10;99.90
14411;DHT22;7290;50.854;4.354;2023-02-19T03:34:43;11.10;99.90
14411;DHT22;7290;50.854;4.354;2023-02-19T03:37:13;11.10;99.90
14411;DHT22;7290;50.854;4.354;2023-02-19T03:39:41;11.20;99.90
14411;DHT22;7290;50.854;4.354;2023-02-19T03:42:15;11.20;99.90
14411;DHT22;7290;50.854;4.354;2023-02-19T03:44:49;11.20;99.90
14411;DHT22;7290;50.854;4.354;2023-02-19T03:47:22;11.10;99.90
14411;DHT22;7290;50.854;4.354;2023-02-19T03:49:55;11.10;99.90
14411;DHT22;7290;50.854;4.354;2023-02-19T03:52:26;11.10;99.90
14411;DHT22;7290;50.854;4.354;2023-02-19T03:54:58;11.10;99.90
14411;DHT22;7290;50.854;4.354;2023-02-19T03:57:32;11.10;99.90
14411;DHT22;7290;50.854;4.354;2023-02-19T04:00:07;11.10;99.90
14411;DHT22;7290;50.854;4.354;2023-02-19T04:02:40;11.20;99.90
14411;DHT22;7290;50.854;4.354;2023-02-19T04:05:11;11.20;99.90
14411;DHT22;7290;50.854;4.354;2023-02-19T04:07:43;11.20;99.90
14411;DHT22;7290;50.854;4.354;2023-02-19T04:10:11;11.10;99.90
14411;DHT22;7290;50.854;4.354;2023-02-19T04:12:40;11.20;99.90
14411;DHT22;7290;50.854;4.354;2023-02-19T04:15:11;11.20;99.90
14411;DHT22;7290;50.854;4.354;2023-02-19T04:17:42;11.10;99.90
14411;DHT22;7290;50.854;4.354;2023-02-19T04:20:11;11.10;99.90
14411;DHT22;7290;50.854;4.354;2023-02-19T04:22:39;11.10;99.90
14411;DHT22;7290;50.854;4.354;2023-02-19T04:25:07;11.10;99.90
14411;DHT22;7290;50.854;4.354;2023-02-19T04:27:35;11.10;99.90
14411;DHT22;7290;50.854;4.354;2023-02-19T04:30:01;11.20;99.90
14411;DHT22;7290;50.854;4.354;2023-02-19T04:32:27;11.20;99.90
14411;DHT22;7290;50.854;4.354;2023-02-19T04:34:53;11.10;99.90
14411;DHT22;7290;50.854;4.354;2023-02-19T04:37:19;11.10;99.90
14411;DHT22;7290;50.854;4.354;2023-02-19T04:39:45;11.10;99.90
14411;DHT22;7290;50.854;4.354;2023-02-19T04:42:11;11.10;99.90
14411;DHT22;7290;50.854;4.354;2023-02-19T04:44:37;11.10;99.90
14411;DHT22;7290;50.854;4.354;2023-02-19T04:47:03;11.00;99.90
14411;DHT22;7290;50.854;4.354;2023-02-19T04:49:29;11.00;99.90
14411;DHT22;7290;50.854;4.354;2023-02-19T04:51:56;11.10;99.90
14411;DHT22;7290;50.854;4.354;2023-02-19T04:54:22;11.10;99.90
14411;DHT22;7290;50.854;4.354;2023-02-19T04:56:48;11.00;99.90
14411;DHT22;7290;50.854;4.354;2023-02-19T04:59:15;11.00;99.90
14411;DHT22;7290;50.854;4.354;2023-02-19T05:01:41;11.00;99.90
14411;DHT22;7290;50.854;4.354;2023-02-19T05:04:07;11.00;99.90
14411;DHT22;7290;50.854;4.354;2023-02-19T05:06:33;11.00;99.90
14411;DHT22;7290;50.854;4.354;2023-02-19T05:09:00;11.10;99.90
14411;DHT22;7290;50.854;4.354;2023-02-19T05:11:26;11.10;99.90
14411;DHT22;7290;50.854;4.354;2023-02-19T05:13:53;11.10;99.90
14411;DHT22;7290;50.854;4.354;2023-02-19T05:16:19;11.10;99.90
14411;DHT22;7290;50.854;4.354;2023-02-19T05:18:46;11.10;99.90
14411;DHT22;7290;50.854;4.354;2023-02-19T05:21:13;11.10;99.90
14411;DHT22;7290;50.854;4.354;2023-02-19T05:23:39;11.10;99.90
14411;DHT22;7290;50.854;4.354;2023-02-19T05:26:06;11.20;99.90
14411;DHT22;7290;50.854;4.354;2023-02-19T05:28:33;11.10;99.90
14411;DHT22;7290;50.854;4.354;2023-02-19T05:31:03;11.00;99.90
14411;DHT22;7290;50.854;4.354;2023-02-19T05:33:29;11.00;99.90
14411;DHT22;7290;50.854;4.354;2023-02-19T05:35:55;10.90;99.90
14411;DHT22;7290;50.854;4.354;2023-02-19T05:38:22;11.10;99.90
14411;DHT22;7290;50.854;4.354;2023-02-19T05:40:48;11.10;99.90
14411;DHT22;7290;50.854;4.354;2023-02-19T05:43:15;11.10;99.90
14411;DHT22;7290;50.854;4.354;2023-02-19T05:45:42;11.00;99.90
14411;DHT22;7290;50.854;4.354;2023-02-19T05:48:10;11.10;99.90
14411;DHT22;7290;50.854;4.354;2023-02-19T05:50:36;11.10;99.90
14411;DHT22;7290;50.854;4.354;2023-02-19T05:53:03;11.00;99.90
14411;DHT22;7290;50.854;4.354;2023-02-19T05:55:33;11.00;99.90
14411;DHT22;7290;50.854;4.354;2023-02-19T05:58:00;11.10;99.90
14411;DHT22;7290;50.854;4.354;2023-02-19T06:00:26;11.10;99.90
14411;DHT22;7290;50.854;4.354;2023-02-19T06:02:53;11.00;99.90
14411;DHT22;7290;50.854;4.354;2023-02-19T06:05:19;11.00;99.90
14411;DHT22;7290;50.854;4.354;2023-02-19T06:07:45;11.10;99.90
14411;DHT22;7290;50.854;4.354;2023-02-19T06:10:11;11.10;99.90
14411;DHT22;7290;50.854;4.354;2023-02-19T06:12:38;11.10;99.90
14411;DHT22;7290;50.854;4.354;2023-02-19T06:15:05;11.20;99.90
14411;DHT22;7290;50.854;4.354;2023-02-19T06:17:32;11.20;99.90
14411;DHT22;7290;50.854;4.354;2023-02-19T06:19:59;11.20;99.90
14411;DHT22;7290;50.854;4.354;2023-02-19T06:22:25;11.20;99.90
14411;DHT22;7290;50.854;4.354;2023-02-19T06:24:51;11.10;99.90
14411;DHT22;7290;50.854;4.354;2023-02-19T06:27:17;11.10;99.90
14411;DHT22;7290;50.854;4.354;2023-02-19T06:29:43;11.20;99.90
14411;DHT22;7290;50.854;4.354;2023-02-19T06:32:09;11.10;99.90
14411;DHT22;7290;50.854;4.354;2023-02-19T06:34:36;11.10;99.90
14411;DHT22;7290;50.854;4.354;2023-02-19T06:37:02;11.10;99.90
14411;DHT22;7290;50.854;4.354;2023-02-19T06:39:28;11.10;99.90
14411;DHT22;7290;50.854;4.354;2023-02-19T06:41:55;11.00;99.90
14411;DHT22;7290;50.854;4.354;2023-02-19T06:44:21;11.00;99.90
14411;DHT22;7290;50.854;4.354;2023-02-19T06:46:47;11.00;99.90
14411;DHT22;7290;50.854;4.354;2023-02-19T06:49:13;11.00;99.90
14411;DHT22;7290;50.854;4.354;2023-02-19T06:51:40;11.00;99.90
14411;DHT22;7290;50.854;4.354;2023-02-19T06:54:06;11.10;99.90
14411;DHT22;7290;50.854;4.354;2023-02-19T06:56:34;11.10;99.90
14411;DHT22;7290;50.854;4.354;2023-02-19T06:59:02;11.00;99.90
14411;DHT22;7290;50.854;4.354;2023-02-19T07:01:29;11.00;99.90
14411;DHT22;7290;50.854;4.354;2023-02-19T07:03:55;10.90;99.90
14411;DHT22;7290;50.854;4.354;2023-02-19T07:06:22;10.90;99.90
14411;DHT22;7290;50.854;4.354;2023-02-19T07:08:51;10.90;99.90
14411;DHT22;7290;50.854;4.354;2023-02-19T07:11:17;11.00;99.90
14411;DHT22;7290;50.854;4.354;2023-02-19T07:13:44;11.10;99.90
14411;DHT22;7290;50.854;4.354;2023-02-19T07:16:11;11.00;99.90
14411;DHT22;7290;50.854;4.354;2023-02-19T07:18:38;11.00;99.90
14411;DHT22;7290;50.854;4.354;2023-02-19T07:21:06;11.00;99.90
14411;DHT22;7290;50.854;4.354;2023-02-19T07:23:32;11.00;99.90
14411;DHT22;7290;50.854;4.354;2023-02-19T07:25:59;11.00;99.90
14411;DHT22;7290;50.854;4.354;2023-02-19T07:28:25;11.00;99.90
14411;DHT22;7290;50.854;4.354;2023-02-19T07:30:51;11.10;99.90
14411;DHT22;7290;50.854;4.354;2023-02-19T07:33:18;11.10;99.90
14411;DHT22;7290;50.854;4.354;2023-02-19T07:35:45;11.10;99.90
14411;DHT22;7290;50.854;4.354;2023-02-19T07:38:11;11.20;99.90
14411;DHT22;7290;50.854;4.354;2023-02-19T07:40:37;11.30;99.90
14411;DHT22;7290;50.854;4.354;2023-02-19T07:43:04;11.30;99.90
14411;DHT22;7290;50.854;4.354;2023-02-19T07:45:30;11.30;99.90
14411;DHT22;7290;50.854;4.354;2023-02-19T07:47:56;11.40;99.90
14411;DHT22;7290;50.854;4.354;2023-02-19T07:50:22;11.40;99.90
14411;DHT22;7290;50.854;4.354;2023-02-19T07:52:48;11.50;99.90
14411;DHT22;7290;50.854;4.354;2023-02-19T07:55:14;11.40;99.90
14411;DHT22;7290;50.854;4.354;2023-02-19T07:57:40;11.40;99.90
14411;DHT22;7290;50.854;4.354;2023-02-19T08:00:07;11.30;99.90
14411;DHT22;7290;50.854;4.354;2023-02-19T08:02:34;11.40;99.90
14411;DHT22;7290;50.854;4.354;2023-02-19T08:05:18;11.40;99.90
14411;DHT22;7290;50.854;4.354;2023-02-19T08:07:44;11.40;99.90
14411;DHT22;7290;50.854;4.354;2023-02-19T08:10:10;11.40;99.90
14411;DHT22;7290;50.854;4.354;2023-02-19T08:12:55;11.30;99.90
14411;DHT22;7290;50.854;4.354;2023-02-19T08:15:41;11.40;99.90
14411;DHT22;7290;50.854;4.354;2023-02-19T08:18:07;11.40;99.90
14411;DHT22;7290;50.854;4.354;2023-02-19T08:20:33;11.40;99.90
14411;DHT22;7290;50.854;4.354;2023-02-19T08:22:59;11.40;99.90
14411;DHT22;7290;50.854;4.354;2023-02-19T08:25:25;11.40;99.90
14411;DHT22;7290;50.854;4.354;2023-02-19T08:27:51;11.30;99.90
14411;DHT22;7290;50.854;4.354;2023-02-19T08:30:17;11.40;99.90
14411;DHT22;7290;50.854;4.354;2023-02-19T08:32:43;11.50;99.90
14411;DHT22;7290;50.854;4.354;2023-02-19T08:35:09;11.40;99.90
14411;DHT22;7290;50.854;4.354;2023-02-19T08:37:35;11.50;99.90
14411;DHT22;7290;50.854;4.354;2023-02-19T08:40:02;11.50;99.90
14411;DHT22;7290;50.854;4.354;2023-02-19T08:42:28;11.50;99.90
14411;DHT22;7290;50.854;4.354;2023-02-19T08:44:54;11.40;99.90
14411;DHT22;7290;50.854;4.354;2023-02-19T08:47:21;11.40;99.90
14411;DHT22;7290;50.854;4.354;2023-02-19T08:49:47;11.40;99.90
14411;DHT22;7290;50.854;4.354;2023-02-19T08:52:13;11.40;99.90
14411;DHT22;7290;50.854;4.354;2023-02-19T08:54:39;11.40;99.90
14411;DHT22;7290;50.854;4.354;2023-02-19T08:57:06;11.40;99.90
14411;DHT22;7290;50.854;4.354;2023-02-19T08:59:32;11.50;99.90
14411;DHT22;7290;50.854;4.354;2023-02-19T09:01:58;11.50;99.90
14411;DHT22;7290;50.854;4.354;2023-02-19T09:04:24;11.50;99.90
14411;DHT22;7290;50.854;4.354;2023-02-19T09:06:51;11.30;99.90
14411;DHT22;7290;50.854;4.354;2023-02-19T09:09:17;11.10;99.90
14411;DHT22;7290;50.854;4.354;2023-02-19T09:11:43;11.20;99.90
14411;DHT22;7290;50.854;4.354;2023-02-19T09:14:09;11.20;99.90
14411;DHT22;7290;50.854;4.354;2023-02-19T09:16:35;11.20;99.90
14411;DHT22;7290;50.854;4.354;2023-02-19T09:19:01;11.30;99.90
14411;DHT22;7290;50.854;4.354;2023-02-19T09:21:27;11.50;99.90
14411;DHT22;7290;50.854;4.354;2023-02-19T09:23:54;11.60;99.90
14411;DHT22;7290;50.854;4.354;2023-02-19T09:26:20;11.60;99.90
14411;DHT22;7290;50.854;4.354;2023-02-19T09:28:47;11.50;99.90
14411;DHT22;7290;50.854;4.354;2023-02-19T09:31:14;11.30;99.90
14411;DHT22;7290;50.854;4.354;2023-02-19T09:33:44;11.30;99.90
14411;DHT22;7290;50.854;4.354;2023-02-19T09:36:11;11.50;99.90
14411;DHT22;7290;50.854;4.354;2023-02-19T09:38:37;11.70;99.90
14411;DHT22;7290;50.854;4.354;2023-02-19T09:41:07;11.80;99.90
14411;DHT22;7290;50.854;4.354;2023-02-19T09:43:34;11.80;99.90
14411;DHT22;7290;50.854;4.354;2023-02-19T09:46:02;11.80;99.90
14411;DHT22;7290;50.854;4.354;2023-02-19T09:48:29;11.90;99.90
14411;DHT22;7290;50.854;4.354;2023-02-19T09:50:56;11.80;99.90
14411;DHT22;7290;50.854;4.354;2023-02-19T09:53:26;11.80;99.90
14411;DHT22;7290;50.854;4.354;2023-02-19T09:55:54;12.00;99.90
14411;DHT22;7290;50.854;4.354;2023-02-19T09:58:25;11.90;99.90
14411;DHT22;7290;50.854;4.354;2023-02-19T10:00:53;12.00;99.90
14411;DHT22;7290;50.854;4.354;2023-02-19T10:03:22;12.00;99.90
14411;DHT22;7290;50.854;4.354;2023-02-19T10:05:53;11.90;99.90
14411;DHT22;7290;50.854;4.354;2023-02-19T10:08:20;11.90;99.90
14411;DHT22;7290;50.854;4.354;2023-02-19T10:10:47;12.00;99.90
14411;DHT22;7290;50.854;4.354;2023-02-19T10:13:18;12.00;99.90
14411;DHT22;7290;50.854;4.354;2023-02-19T10:15:47;12.10;99.90
14411;DHT22;7290;50.854;4.354;2023-02-19T10:18:21;12.20;99.90
14411;DHT22;7290;50.854;4.354;2023-02-19T10:20:49;12.20;99.90
14411;DHT22;7290;50.854;4.354;2023-02-19T10:23:16;12.20;99.90
14411;DHT22;7290;50.854;4.354;2023-02-19T10:25:45;12.30;99.90
14411;DHT22;7290;50.854;4.354;2023-02-19T10:28:14;12.30;99.90
14411;DHT22;7290;50.854;4.354;2023-02-19T10:30:40;12.40;99.90
14411;DHT22;7290;50.854;4.354;2023-02-19T10:33:09;12.30;99.90
14411;DHT22;7290;50.854;4.354;2023-02-19T10:35:38;12.20;99.90
14411;DHT22;7290;50.854;4.354;2023-02-19T10:38:16;12.20;99.90
14411;DHT22;7290;50.854;4.354;2023-02-19T10:40:43;12.20;99.90
14411;DHT22;7290;50.854;4.354;2023-02-19T10:43:21;12.30;99.90
14411;DHT22;7290;50.854;4.354;2023-02-19T10:45:48;12.40;99.90
14411;DHT22;7290;50.854;4.354;2023-02-19T10:48:22;12.30;99.90
14411;DHT22;7290;50.854;4.354;2023-02-19T10:50:50;12.50;99.90
14411;DHT22;7290;50.854;4.354;2023-02-19T10:53:34;12.30;99.90
14411;DHT22;7290;50.854;4.354;2023-02-19T10:56:06;12.30;99.90
14411;DHT22;7290;50.854;4.354;2023-02-19T10:58:32;12.30;99.90
14411;DHT22;7290;50.854;4.354;2023-02-19T11:01:14;12.20;99.90
14411;DHT22;7290;50.854;4.354;2023-02-19T11:03:41;12.30;99.90
14411;DHT22;7290;50.854;4.354;2023-02-19T11:06:09;12.40;99.90
14411;DHT22;7290;50.854;4.354;2023-02-19T11:08:48;12.50;99.90
14411;DHT22;7290;50.854;4.354;2023-02-19T11:11:22;12.40;99.90
14411;DHT22;7290;50.854;4.354;2023-02-19T11:13:49;12.30;99.90
14411;DHT22;7290;50.854;4.354;2023-02-19T11:16:16;12.30;99.90
14411;DHT22;7290;50.854;4.354;2023-02-19T11:18:43;12.40;99.90
14411;DHT22;7290;50.854;4.354;2023-02-19T11:21:25;12.50;99.90
14411;DHT22;7290;50.854;4.354;2023-02-19T11:23:54;12.50;99.90
14411;DHT22;7290;50.854;4.354;2023-02-19T11:26:23;12.40;99.90
14411;DHT22;7290;50.854;4.354;2023-02-19T11:28:55;12.50;99.90
14411;DHT22;7290;50.854;4.354;2023-02-19T11:31:24;12.60;99.90
14411;DHT22;7290;50.854;4.354;2023-02-19T11:33:55;12.40;99.90
14411;DHT22;7290;50.854;4.354;2023-02-19T11:36:32;12.50;99.90
14411;DHT22;7290;50.854;4.354;2023-02-19T11:39:06;12.50;99.90
14411;DHT22;7290;50.854;4.354;2023-02-19T11:42:04;12.40;99.90
14411;DHT22;7290;50.854;4.354;2023-02-19T11:44:42;12.40;99.90
14411;DHT22;7290;50.854;4.354;2023-02-19T11:47:36;12.30;99.90
14411;DHT22;7290;50.854;4.354;2023-02-19T11:50:15;12.20;99.90
14411;DHT22;7290;50.854;4.354;2023-02-19T11:52:54;12.10;99.90
14411;DHT22;7290;50.854;4.354;2023-02-19T11:55:36;12.30;99.90
14411;DHT22;7290;50.854;4.354;2023-02-19T11:58:31;12.20;99.90
14411;DHT22;7290;50.854;4.354;2023-02-19T12:01:05;12.00;99.90
14411;DHT22;7290;50.854;4.354;2023-02-19T12:03:47;12.00;99.90
14411;DHT22;7290;50.854;4.354;2023-02-19T12:06:25;12.10;99.90
14411;DHT22;7290;50.854;4.354;2023-02-19T12:09:28;12.10;99.90
14411;DHT22;7290;50.854;4.354;2023-02-19T12:12:07;12.20;99.90
14411;DHT22;7290;50.854;4.354;2023-02-19T12:14:59;12.00;99.90
14411;DHT22;7290;50.854;4.354;2023-02-19T12:17:49;12.00;99.90
14411;DHT22;7290;50.854;4.354;2023-02-19T12:20:25;12.10;99.90
14411;DHT22;7290;50.854;4.354;2023-02-19T12:23:06;12.00;99.90
14411;DHT22;7290;50.854;4.354;2023-02-19T12:25:48;12.00;99.90
14411;DHT22;7290;50.854;4.354;2023-02-19T12:34:41;11.90;99.90
14411;DHT22;7290;50.854;4.354;2023-02-19T12:37:20;12.00;99.90
14411;DHT22;7290;50.854;4.354;2023-02-19T12:39:59;12.10;99.90
14411;DHT22;7290;50.854;4.354;2023-02-19T12:42:41;12.00;99.90
14411;DHT22;7290;50.854;4.354;2023-02-19T12:45:18;12.00;99.90
14411;DHT22;7290;50.854;4.354;2023-02-19T12:47:54;12.00;99.90
14411;DHT22;7290;50.854;4.354;2023-02-19T12:50:24;12.10;99.90
14411;DHT22;7290;50.854;4.354;2023-02-19T12:52:56;12.10;99.90
14411;DHT22;7290;50.854;4.354;2023-02-19T12:55:28;12.20;99.90
14411;DHT22;7290;50.854;4.354;2023-02-19T12:57:57;12.40;99.90
14411;DHT22;7290;50.854;4.354;2023-02-19T13:00:30;12.50;99.90
14411;DHT22;7290;50.854;4.354;2023-02-19T13:03:00;12.40;99.90
14411;DHT22;7290;50.854;4.354;2023-02-19T13:05:37;12.30;99.90
14411;DHT22;7290;50.854;4.354;2023-02-19T13:08:10;12.30;99.90
14411;DHT22;7290;50.854;4.354;2023-02-19T13:10:42;12.10;99.90
14411;DHT22;7290;50.854;4.354;2023-02-19T13:13:14;12.10;99.90
14411;DHT22;7290;50.854;4.354;2023-02-19T13:15:47;12.00;99.90
14411;DHT22;7290;50.854;4.354;2023-02-19T13:18:18;11.80;99.90
14411;DHT22;7290;50.854;4.354;2023-02-19T13:20:45;11.80;99.90
14411;DHT22;7290;50.854;4.354;2023-02-19T13:23:16;11.80;99.90
14411;DHT22;7290;50.854;4.354;2023-02-19T13:26:28;11.90;99.90
14411;DHT22;7290;50.854;4.354;2023-02-19T13:29:12;11.80;99.90
14411;DHT22;7290;50.854;4.354;2023-02-19T13:31:55;11.60;99.90
14411;DHT22;7290;50.854;4.354;2023-02-19T13:34:38;11.50;99.90
14411;DHT22;7290;50.854;4.354;2023-02-19T13:37:07;11.60;99.90
14411;DHT22;7290;50.854;4.354;2023-02-19T13:39:33;11.70;99.90
14411;DHT22;7290;50.854;4.354;2023-02-19T13:42:00;11.70;99.90
14411;DHT22;7290;50.854;4.354;2023-02-19T13:44:28;11.80;99.90
14411;DHT22;7290;50.854;4.354;2023-02-19T13:46:55;11.80;99.90
14411;DHT22;7290;50.854;4.354;2023-02-19T13:49:39;11.70;99.90
14411;DHT22;7290;50.854;4.354;2023-02-19T13:52:34;11.70;99.90
14411;DHT22;7290;50.854;4.354;2023-02-19T13:55:45;11.60;99.90
14411;DHT22;7290;50.854;4.354;2023-02-19T13:58:36;11.70;99.90
14411;DHT22;7290;50.854;4.354;2023-02-19T14:01:07;11.70;99.90
14411;DHT22;7290;50.854;4.354;2023-02-19T14:03:46;11.80;99.90
14411;DHT22;7290;50.854;4.354;2023-02-19T14:06:15;11.80;99.90
14411;DHT22;7290;50.854;4.354;2023-02-19T14:08:52;11.80;99.90
14411;DHT22;7290;50.854;4.354;2023-02-19T14:14:26;12.00;99.90
14411;DHT22;7290;50.854;4.354;2023-02-19T14:17:00;12.00;99.90
14411;DHT22;7290;50.854;4.354;2023-02-19T14:19:49;12.00;99.90
14411;DHT22;7290;50.854;4.354;2023-02-19T14:22:48;11.80;99.90
14411;DHT22;7290;50.854;4.354;2023-02-19T14:25:40;11.80;99.90
14411;DHT22;7290;50.854;4.354;2023-02-19T14:28:20;11.70;99.90
14411;DHT22;7290;50.854;4.354;2023-02-19T14:30:50;11.50;99.90
14411;DHT22;7290;50.854;4.354;2023-02-19T14:33:19;11.40;99.90
14411;DHT22;7290;50.854;4.354;2023-02-19T14:35:50;11.40;99.90
14411;DHT22;7290;50.854;4.354;2023-02-19T14:38:20;11.40;99.90
14411;DHT22;7290;50.854;4.354;2023-02-19T14:40:47;11.40;99.90
14411;DHT22;7290;50.854;4.354;2023-02-19T14:43:16;11.20;99.90
14411;DHT22;7290;50.854;4.354;2023-02-19T14:45:44;11.20;99.90
14411;DHT22;7290;50.854;4.354;2023-02-19T14:48:17;11.10;99.90
14411;DHT22;7290;50.854;4.354;2023-02-19T14:50:48;11.10;99.90
14411;DHT22;7290;50.854;4.354;2023-02-19T14:53:15;11.20;99.90
14411;DHT22;7290;50.854;4.354;2023-02-19T14:55:42;11.20;99.90
14411;DHT22;7290;50.854;4.354;2023-02-19T14:58:14;11.20;99.90
14411;DHT22;7290;50.854;4.354;2023-02-19T15:00:42;11.20;99.90
14411;DHT22;7290;50.854;4.354;2023-02-19T15:03:24;11.30;99.90
14411;DHT22;7290;50.854;4.354;2023-02-19T15:05:54;11.40;99.90
14411;DHT22;7290;50.854;4.354;2023-02-19T15:08:26;11.50;99.90
14411;DHT22;7290;50.854;4.354;2023-02-19T15:10:54;11.50;99.90
14411;DHT22;7290;50.854;4.354;2023-02-19T15:13:24;11.30;99.90
14411;DHT22;7290;50.854;4.354;2023-02-19T15:15:52;11.20;99.90
14411;DHT22;7290;50.854;4.354;2023-02-19T15:18:22;11.30;99.90
14411;DHT22;7290;50.854;4.354;2023-02-19T15:20:49;11.40;99.90
14411;DHT22;7290;50.854;4.354;2023-02-19T15:23:20;11.30;99.90
14411;DHT22;7290;50.854;4.354;2023-02-19T15:25:47;11.30;99.90
14411;DHT22;7290;50.854;4.354;2023-02-19T15:28:28;11.30;99.90
14411;DHT22;7290;50.854;4.354;2023-02-19T15:31:03;11.20;99.90
14411;DHT22;7290;50.854;4.354;2023-02-19T15:33:33;11.20;99.90
14411;DHT22;7290;50.854;4.354;2023-02-19T15:36:01;11.00;99.90
14411;DHT22;7290;50.854;4.354;2023-02-19T15:38:29;10.90;99.90
14411;DHT22;7290;50.854;4.354;2023-02-19T15:40:55;10.80;99.90
14411;DHT22;7290;50.854;4.354;2023-02-19T15:43:24;10.90;99.90
14411;DHT22;7290;50.854;4.354;2023-02-19T15:45:56;10.80;99.90
14411;DHT22;7290;50.854;4.354;2023-02-19T15:48:26;10.80;99.90
14411;DHT22;7290;50.854;4.354;2023-02-19T15:50:57;10.80;99.90
14411;DHT22;7290;50.854;4.354;2023-02-19T15:53:31;10.90;99.90
14411;DHT22;7290;50.854;4.354;2023-02-19T15:56:03;11.00;99.90
14411;DHT22;7290;50.854;4.354;2023-02-19T15:58:35;10.80;99.90
14411;DHT22;7290;50.854;4.354;2023-02-19T16:01:03;10.70;99.90
14411;DHT22;7290;50.854;4.354;2023-02-19T16:03:34;10.70;99.90
14411;DHT22;7290;50.854;4.354;2023-02-19T16:06:03;10.70;99.90
14411;DHT22;7290;50.854;4.354;2023-02-19T16:08:31;10.80;99.90
14411;DHT22;7290;50.854;4.354;2023-02-19T16:10:58;11.00;99.90
14411;DHT22;7290;50.854;4.354;2023-02-19T16:13:26;11.00;99.90
14411;DHT22;7290;50.854;4.354;2023-02-19T16:15:58;11.00;99.90